Richard Brusco — WDC3031 — position and weather

sailwx.info

Track history (hours):
 
Tides and Currents Weather Stations Pressure Air Temp Water Temp Dewpoint Dewpoint Depression Visibility Wind Speed Wind Dir Waves Ship Positions

Richard Brusco

Owner: Brusco Tug & Barge, Inc., Longview, WA. More information available from US FCC via Universal Licensing System and Coast Guard Vessel Documentation Center.

Last reported at 2018-Mar-29 03:15 UTC. Time now 2018-Apr-23 13:31 UTC.
Position N 58°17' W 136°13'.
Warning: this ship's position is 25 days out of date.

Length 32 m; draft 4 m.

Type: Tow > 200 m length. MMSI: 367001790.

Date/timePositionNaut miles runAvg speedWind from/ knotsBaromVisibWave heightAir tempDewpointWater temp
2018-Mar-29 03:15N 58°17' W 136°13'3 9.8
2018-Mar-29 02:57N 58°15' W 136°08'4 8.0
2018-Mar-29 02:30N 58°14' W 136°02'2 4.0
2018-Mar-29 02:00N 58°12' W 135°60'0 0.1
2018-Mar-29 01:30N 58°12' W 135°60'0 0.0
2018-Mar-28 23:56N 58°12' W 135°60'0 0.0
2018-Mar-28 23:30N 58°12' W 135°60'0 0.0
2018-Mar-28 22:07N 58°12' W 135°60'0 0.1
2018-Mar-28 21:59N 58°12' W 135°60'0 0.0
2018-Mar-28 20:03N 58°12' W 135°60'0 0.0
2018-Mar-28 18:35N 58°12' W 135°60'0 0.3
2018-Mar-28 18:27N 58°12' W 135°60'3 3.7
2018-Mar-28 17:34N 58°16' W 135°60'2 8.6
2018-Mar-28 17:20N 58°16' W 135°56'5 8.4
2018-Mar-28 16:43N 58°18' W 135°47'  
2018-Mar-26 09:03N 58°13' W 135°25'110.0
2018-Mar-26 08:58N 58°13' W 135°26'510.1
2018-Mar-26 08:27N 58°15' W 135°35'4 9.8
2018-Mar-26 08:00N 58°17' W 135°43'4 8.9
2018-Mar-26 07:30N 58°18' W 135°51'4 9.0
2018-Mar-26 07:00N 58°16' W 135°59'5 8.9
2018-Mar-26 06:30N 58°15' W 136°08'  
Track history (hours):
 
Tides and Currents Weather Stations Pressure Air Temp Water Temp Dewpoint Dewpoint Depression Visibility Wind Speed Wind Dir Waves Ship Positions

Richard Brusco

Owner: Brusco Tug & Barge, Inc., Longview, WA. More information available from US FCC via Universal Licensing System and Coast Guard Vessel Documentation Center.

Last reported at 2018-Mar-29 03:15 UTC. Time now 2018-Apr-23 13:31 UTC.
Position N 58°17' W 136°13'.
Warning: this ship's position is 25 days out of date.

Length 32 m; draft 4 m.

Type: Tow > 200 m length. MMSI: 367001790.

Date/timePositionNaut miles runAvg speedWind from/ knotsBaromVisibWave heightAir tempDewpointWater temp
2018-Mar-29 03:15N 58°17' W 136°13'3 9.8
2018-Mar-29 02:57N 58°15' W 136°08'4 8.0
2018-Mar-29 02:30N 58°14' W 136°02'2 4.0
2018-Mar-29 02:00N 58°12' W 135°60'0 0.1
2018-Mar-29 01:30N 58°12' W 135°60'0 0.0
2018-Mar-28 23:56N 58°12' W 135°60'0 0.0
2018-Mar-28 23:30N 58°12' W 135°60'0 0.0
2018-Mar-28 22:07N 58°12' W 135°60'0 0.1
2018-Mar-28 21:59N 58°12' W 135°60'0 0.0
2018-Mar-28 20:03N 58°12' W 135°60'0 0.0
2018-Mar-28 18:35N 58°12' W 135°60'0 0.3
2018-Mar-28 18:27N 58°12' W 135°60'3 3.7
2018-Mar-28 17:34N 58°16' W 135°60'2 8.6
2018-Mar-28 17:20N 58°16' W 135°56'5 8.4
2018-Mar-28 16:43N 58°18' W 135°47'  
2018-Mar-26 09:03N 58°13' W 135°25'110.0
2018-Mar-26 08:58N 58°13' W 135°26'510.1
2018-Mar-26 08:27N 58°15' W 135°35'4 9.8
2018-Mar-26 08:00N 58°17' W 135°43'4 8.9
2018-Mar-26 07:30N 58°18' W 135°51'4 9.0
2018-Mar-26 07:00N 58°16' W 135°59'5 8.9
2018-Mar-26 06:30N 58°15' W 136°08'  

Dump ship's entire track history